sensor_id;sensor_type;location;lat;lon;timestamp;P1;durP1;ratioP1;P2;durP2;ratioP2
33403;SDS011;19751;40.274;18.268;2022-10-26T00:02:13;48.63;;;24.30;;
33403;SDS011;19751;40.274;18.268;2022-10-26T00:04:39;42.60;;;23.10;;
33403;SDS011;19751;40.274;18.268;2022-10-26T00:07:05;44.50;;;24.17;;
33403;SDS011;19751;40.274;18.268;2022-10-26T00:09:30;43.53;;;23.75;;
33403;SDS011;19751;40.274;18.268;2022-10-26T00:11:56;37.33;;;21.75;;
33403;SDS011;19751;40.274;18.268;2022-10-26T00:14:21;35.55;;;20.85;;
33403;SDS011;19751;40.274;18.268;2022-10-26T00:16:47;33.28;;;19.70;;
33403;SDS011;19751;40.274;18.268;2022-10-26T00:19:13;32.70;;;20.40;;
33403;SDS011;19751;40.274;18.268;2022-10-26T00:21:38;32.33;;;19.60;;
33403;SDS011;19751;40.274;18.268;2022-10-26T00:24:04;31.10;;;18.63;;
33403;SDS011;19751;40.274;18.268;2022-10-26T00:26:29;31.30;;;19.50;;
33403;SDS011;19751;40.274;18.268;2022-10-26T00:28:55;25.63;;;17.85;;
33403;SDS011;19751;40.274;18.268;2022-10-26T00:31:22;18.85;;;14.18;;
33403;SDS011;19751;40.274;18.268;2022-10-26T00:33:51;29.27;;;18.35;;
33403;SDS011;19751;40.274;18.268;2022-10-26T00:36:20;23.70;;;16.73;;
33403;SDS011;19751;40.274;18.268;2022-10-26T00:38:49;24.45;;;16.40;;
33403;SDS011;19751;40.274;18.268;2022-10-26T00:41:16;23.10;;;15.63;;
33403;SDS011;19751;40.274;18.268;2022-10-26T00:43:44;22.30;;;13.45;;
33403;SDS011;19751;40.274;18.268;2022-10-26T00:46:11;23.25;;;15.48;;
33403;SDS011;19751;40.274;18.268;2022-10-26T00:48:42;20.42;;;14.27;;
33403;SDS011;19751;40.274;18.268;2022-10-26T00:51:19;20.45;;;12.93;;
33403;SDS011;19751;40.274;18.268;2022-10-26T00:56:24;20.20;;;11.30;;
33403;SDS011;19751;40.274;18.268;2022-10-26T00:58:50;20.15;;;12.15;;
33403;SDS011;19751;40.274;18.268;2022-10-26T01:01:16;16.13;;;10.93;;
33403;SDS011;19751;40.274;18.268;2022-10-26T01:03:42;15.68;;;10.63;;
33403;SDS011;19751;40.274;18.268;2022-10-26T01:06:08;18.60;;;12.13;;
33403;SDS011;19751;40.274;18.268;2022-10-26T01:08:35;20.23;;;10.77;;
33403;SDS011;19751;40.274;18.268;2022-10-26T01:11:02;23.67;;;10.95;;
33403;SDS011;19751;40.274;18.268;2022-10-26T01:13:28;18.20;;;11.65;;
33403;SDS011;19751;40.274;18.268;2022-10-26T01:18:39;21.77;;;11.38;;
33403;SDS011;19751;40.274;18.268;2022-10-26T01:31:40;18.40;;;11.00;;
33403;SDS011;19751;40.274;18.268;2022-10-26T01:34:12;21.67;;;10.43;;
33403;SDS011;19751;40.274;18.268;2022-10-26T01:36:47;16.75;;;10.18;;
33403;SDS011;19751;40.274;18.268;2022-10-26T01:39:28;19.58;;;11.40;;
33403;SDS011;19751;40.274;18.268;2022-10-26T01:42:03;15.95;;;10.07;;
33403;SDS011;19751;40.274;18.268;2022-10-26T01:44:33;19.73;;;10.23;;
33403;SDS011;19751;40.274;18.268;2022-10-26T01:47:05;16.77;;;10.13;;
33403;SDS011;19751;40.274;18.268;2022-10-26T01:49:34;13.35;;;9.68;;
33403;SDS011;19751;40.274;18.268;2022-10-26T01:52:04;22.98;;;11.20;;
33403;SDS011;19751;40.274;18.268;2022-10-26T01:54:30;20.10;;;11.55;;
33403;SDS011;19751;40.274;18.268;2022-10-26T01:56:56;16.30;;;10.02;;
33403;SDS011;19751;40.274;18.268;2022-10-26T02:17:26;19.23;;;12.52;;
33403;SDS011;19751;40.274;18.268;2022-10-26T02:20:00;18.07;;;10.83;;
33403;SDS011;19751;40.274;18.268;2022-10-26T02:22:30;17.83;;;11.07;;
33403;SDS011;19751;40.274;18.268;2022-10-26T02:25:05;20.13;;;10.82;;
33403;SDS011;19751;40.274;18.268;2022-10-26T02:27:35;15.90;;;10.48;;
33403;SDS011;19751;40.274;18.268;2022-10-26T02:30:05;12.30;;;10.13;;
33403;SDS011;19751;40.274;18.268;2022-10-26T02:32:33;15.15;;;9.88;;
33403;SDS011;19751;40.274;18.268;2022-10-26T02:35:01;12.57;;;9.70;;
33403;SDS011;19751;40.274;18.268;2022-10-26T02:37:29;14.38;;;10.02;;
33403;SDS011;19751;40.274;18.268;2022-10-26T02:39:57;16.55;;;11.65;;
33403;SDS011;19751;40.274;18.268;2022-10-26T02:42:27;16.85;;;10.57;;
33403;SDS011;19751;40.274;18.268;2022-10-26T02:45:11;19.55;;;11.15;;
33403;SDS011;19751;40.274;18.268;2022-10-26T02:47:43;17.30;;;11.68;;
33403;SDS011;19751;40.274;18.268;2022-10-26T02:50:08;17.27;;;10.70;;
33403;SDS011;19751;40.274;18.268;2022-10-26T02:52:59;20.30;;;13.38;;
33403;SDS011;19751;40.274;18.268;2022-10-26T02:55:31;21.73;;;14.35;;
33403;SDS011;19751;40.274;18.268;2022-10-26T02:58:02;21.85;;;14.05;;
33403;SDS011;19751;40.274;18.268;2022-10-26T03:00:32;19.40;;;11.40;;
33403;SDS011;19751;40.274;18.268;2022-10-26T03:02:58;16.67;;;12.30;;
33403;SDS011;19751;40.274;18.268;2022-10-26T03:05:24;17.75;;;13.43;;
33403;SDS011;19751;40.274;18.268;2022-10-26T03:07:52;23.20;;;15.13;;
33403;SDS011;19751;40.274;18.268;2022-10-26T03:10:18;26.55;;;15.32;;
33403;SDS011;19751;40.274;18.268;2022-10-26T03:12:44;19.90;;;14.10;;
33403;SDS011;19751;40.274;18.268;2022-10-26T03:15:09;21.65;;;14.90;;
33403;SDS011;19751;40.274;18.268;2022-10-26T03:17:35;26.80;;;14.50;;
33403;SDS011;19751;40.274;18.268;2022-10-26T03:20:01;21.48;;;13.05;;
33403;SDS011;19751;40.274;18.268;2022-10-26T03:22:27;17.67;;;12.32;;
33403;SDS011;19751;40.274;18.268;2022-10-26T03:24:53;16.45;;;12.75;;
33403;SDS011;19751;40.274;18.268;2022-10-26T03:27:19;18.38;;;12.27;;
33403;SDS011;19751;40.274;18.268;2022-10-26T03:29:44;25.38;;;13.38;;
33403;SDS011;19751;40.274;18.268;2022-10-26T03:32:10;18.88;;;14.18;;
33403;SDS011;19751;40.274;18.268;2022-10-26T03:34:35;18.25;;;13.25;;
33403;SDS011;19751;40.274;18.268;2022-10-26T03:37:01;21.80;;;14.00;;
33403;SDS011;19751;40.274;18.268;2022-10-26T03:39:26;18.52;;;12.80;;
33403;SDS011;19751;40.274;18.268;2022-10-26T03:41:51;20.33;;;13.90;;
33403;SDS011;19751;40.274;18.268;2022-10-26T03:44:17;17.60;;;12.75;;
33403;SDS011;19751;40.274;18.268;2022-10-26T03:46:42;17.45;;;12.40;;
33403;SDS011;19751;40.274;18.268;2022-10-26T03:49:08;17.55;;;13.27;;
33403;SDS011;19751;40.274;18.268;2022-10-26T03:51:33;16.40;;;11.65;;
33403;SDS011;19751;40.274;18.268;2022-10-26T03:53:59;18.15;;;12.07;;
33403;SDS011;19751;40.274;18.268;2022-10-26T03:56:24;19.38;;;12.32;;
33403;SDS011;19751;40.274;18.268;2022-10-26T03:58:50;15.43;;;12.02;;
33403;SDS011;19751;40.274;18.268;2022-10-26T04:01:16;19.02;;;12.13;;
33403;SDS011;19751;40.274;18.268;2022-10-26T04:03:41;17.13;;;12.13;;
33403;SDS011;19751;40.274;18.268;2022-10-26T04:06:07;21.85;;;12.50;;
33403;SDS011;19751;40.274;18.268;2022-10-26T04:08:32;17.02;;;12.35;;
33403;SDS011;19751;40.274;18.268;2022-10-26T04:10:58;16.05;;;11.23;;
33403;SDS011;19751;40.274;18.268;2022-10-26T04:13:23;18.30;;;12.18;;
33403;SDS011;19751;40.274;18.268;2022-10-26T04:15:49;16.77;;;11.18;;
33403;SDS011;19751;40.274;18.268;2022-10-26T04:18:14;16.25;;;11.50;;
33403;SDS011;19751;40.274;18.268;2022-10-26T04:20:40;14.48;;;10.65;;
33403;SDS011;19751;40.274;18.268;2022-10-26T04:23:07;14.00;;;11.20;;
33403;SDS011;19751;40.274;18.268;2022-10-26T04:25:38;16.85;;;12.20;;
33403;SDS011;19751;40.274;18.268;2022-10-26T04:28:04;13.65;;;11.15;;
33403;SDS011;19751;40.274;18.268;2022-10-26T04:30:31;23.23;;;11.48;;
33403;SDS011;19751;40.274;18.268;2022-10-26T04:32:57;17.52;;;9.95;;
33403;SDS011;19751;40.274;18.268;2022-10-26T04:35:23;19.20;;;12.95;;
33403;SDS011;19751;40.274;18.268;2022-10-26T04:37:49;15.38;;;11.48;;
33403;SDS011;19751;40.274;18.268;2022-10-26T04:40:15;18.02;;;11.45;;
33403;SDS011;19751;40.274;18.268;2022-10-26T04:42:41;15.88;;;9.77;;
33403;SDS011;19751;40.274;18.268;2022-10-26T04:45:08;16.10;;;9.55;;
33403;SDS011;19751;40.274;18.268;2022-10-26T04:47:34;17.20;;;12.00;;
33403;SDS011;19751;40.274;18.268;2022-10-26T04:50:00;18.73;;;11.85;;
33403;SDS011;19751;40.274;18.268;2022-10-26T04:52:25;14.82;;;10.93;;
33403;SDS011;19751;40.274;18.268;2022-10-26T04:54:51;16.92;;;10.75;;
33403;SDS011;19751;40.274;18.268;2022-10-26T04:57:16;14.50;;;9.75;;
33403;SDS011;19751;40.274;18.268;2022-10-26T04:59:42;14.60;;;10.65;;
33403;SDS011;19751;40.274;18.268;2022-10-26T05:02:07;19.60;;;11.38;;
33403;SDS011;19751;40.274;18.268;2022-10-26T05:04:33;14.45;;;10.60;;
33403;SDS011;19751;40.274;18.268;2022-10-26T05:06:58;16.77;;;10.27;;
33403;SDS011;19751;40.274;18.268;2022-10-26T05:09:24;17.35;;;10.77;;
33403;SDS011;19751;40.274;18.268;2022-10-26T05:11:49;16.90;;;10.55;;
33403;SDS011;19751;40.274;18.268;2022-10-26T05:14:15;16.15;;;11.18;;
33403;SDS011;19751;40.274;18.268;2022-10-26T05:16:40;17.58;;;10.65;;
33403;SDS011;19751;40.274;18.268;2022-10-26T05:19:08;16.38;;;10.30;;
33403;SDS011;19751;40.274;18.268;2022-10-26T05:21:34;15.85;;;10.93;;
33403;SDS011;19751;40.274;18.268;2022-10-26T05:23:59;14.27;;;9.88;;
33403;SDS011;19751;40.274;18.268;2022-10-26T05:26:25;14.68;;;9.93;;
33403;SDS011;19751;40.274;18.268;2022-10-26T05:28:50;17.58;;;10.43;;
33403;SDS011;19751;40.274;18.268;2022-10-26T05:31:17;22.80;;;10.35;;
33403;SDS011;19751;40.274;18.268;2022-10-26T05:33:43;18.73;;;9.93;;
33403;SDS011;19751;40.274;18.268;2022-10-26T05:36:08;21.75;;;10.65;;
33403;SDS011;19751;40.274;18.268;2022-10-26T05:38:34;16.48;;;11.35;;
33403;SDS011;19751;40.274;18.268;2022-10-26T05:40:59;15.93;;;10.05;;
33403;SDS011;19751;40.274;18.268;2022-10-26T05:43:25;16.55;;;9.65;;
33403;SDS011;19751;40.274;18.268;2022-10-26T05:45:51;19.60;;;10.57;;
33403;SDS011;19751;40.274;18.268;2022-10-26T05:48:18;16.42;;;10.45;;
33403;SDS011;19751;40.274;18.268;2022-10-26T05:50:44;19.33;;;11.13;;
33403;SDS011;19751;40.274;18.268;2022-10-26T05:53:10;18.65;;;10.15;;
33403;SDS011;19751;40.274;18.268;2022-10-26T05:55:36;24.50;;;10.80;;
33403;SDS011;19751;40.274;18.268;2022-10-26T05:58:02;21.35;;;11.15;;
33403;SDS011;19751;40.274;18.268;2022-10-26T06:00:28;12.13;;;9.75;;
33403;SDS011;19751;40.274;18.268;2022-10-26T06:03:16;19.65;;;10.27;;
33403;SDS011;19751;40.274;18.268;2022-10-26T06:05:58;19.15;;;11.15;;
33403;SDS011;19751;40.274;18.268;2022-10-26T06:08:25;28.77;;;12.30;;
33403;SDS011;19751;40.274;18.268;2022-10-26T06:10:53;27.08;;;11.85;;
33403;SDS011;19751;40.274;18.268;2022-10-26T06:13:20;23.67;;;11.40;;
33403;SDS011;19751;40.274;18.268;2022-10-26T06:15:52;30.63;;;14.13;;
33403;SDS011;19751;40.274;18.268;2022-10-26T06:24:03;27.75;;;11.00;;
33403;SDS011;19751;40.274;18.268;2022-10-26T06:31:45;20.90;;;11.02;;
33403;SDS011;19751;40.274;18.268;2022-10-26T06:34:12;18.73;;;10.88;;
33403;SDS011;19751;40.274;18.268;2022-10-26T06:36:45;22.88;;;11.38;;
33403;SDS011;19751;40.274;18.268;2022-10-26T06:39:13;21.60;;;11.15;;
33403;SDS011;19751;40.274;18.268;2022-10-26T06:41:41;21.73;;;10.73;;
33403;SDS011;19751;40.274;18.268;2022-10-26T06:44:07;21.42;;;9.98;;
33403;SDS011;19751;40.274;18.268;2022-10-26T06:46:44;22.17;;;10.63;;
33403;SDS011;19751;40.274;18.268;2022-10-26T06:51:52;20.27;;;10.98;;
33403;SDS011;19751;40.274;18.268;2022-10-26T06:57:11;18.80;;;10.75;;
33403;SDS011;19751;40.274;18.268;2022-10-26T06:59:42;17.67;;;11.57;;
33403;SDS011;19751;40.274;18.268;2022-10-26T07:02:12;23.05;;;11.55;;
33403;SDS011;19751;40.274;18.268;2022-10-26T07:04:39;19.08;;;11.20;;
33403;SDS011;19751;40.274;18.268;2022-10-26T07:07:05;18.95;;;11.05;;
33403;SDS011;19751;40.274;18.268;2022-10-26T07:09:33;16.70;;;11.05;;
33403;SDS011;19751;40.274;18.268;2022-10-26T07:11:58;15.35;;;9.88;;
33403;SDS011;19751;40.274;18.268;2022-10-26T07:14:24;30.13;;;11.55;;
33403;SDS011;19751;40.274;18.268;2022-10-26T07:16:49;16.92;;;10.02;;
33403;SDS011;19751;40.274;18.268;2022-10-26T07:19:15;17.58;;;9.60;;
33403;SDS011;19751;40.274;18.268;2022-10-26T07:21:40;24.83;;;9.75;;
33403;SDS011;19751;40.274;18.268;2022-10-26T07:24:06;20.27;;;10.30;;
33403;SDS011;19751;40.274;18.268;2022-10-26T07:26:31;17.95;;;9.25;;
33403;SDS011;19751;40.274;18.268;2022-10-26T07:28:57;17.52;;;10.10;;
33403;SDS011;19751;40.274;18.268;2022-10-26T07:31:22;22.48;;;10.82;;
33403;SDS011;19751;40.274;18.268;2022-10-26T07:33:48;17.33;;;9.73;;
33403;SDS011;19751;40.274;18.268;2022-10-26T07:36:13;16.08;;;10.40;;
33403;SDS011;19751;40.274;18.268;2022-10-26T07:38:39;21.88;;;11.93;;
33403;SDS011;19751;40.274;18.268;2022-10-26T07:41:04;21.02;;;9.77;;
33403;SDS011;19751;40.274;18.268;2022-10-26T07:43:30;21.00;;;10.98;;
33403;SDS011;19751;40.274;18.268;2022-10-26T07:45:56;18.88;;;9.77;;
33403;SDS011;19751;40.274;18.268;2022-10-26T07:48:21;18.65;;;9.57;;
33403;SDS011;19751;40.274;18.268;2022-10-26T07:50:47;19.73;;;9.95;;
33403;SDS011;19751;40.274;18.268;2022-10-26T07:53:13;17.17;;;8.95;;
33403;SDS011;19751;40.274;18.268;2022-10-26T07:55:38;18.55;;;10.02;;
33403;SDS011;19751;40.274;18.268;2022-10-26T07:58:04;14.68;;;7.75;;
33403;SDS011;19751;40.274;18.268;2022-10-26T08:00:29;12.82;;;8.82;;
33403;SDS011;19751;40.274;18.268;2022-10-26T08:02:55;13.90;;;8.68;;
33403;SDS011;19751;40.274;18.268;2022-10-26T08:05:21;21.45;;;9.07;;
33403;SDS011;19751;40.274;18.268;2022-10-26T08:07:46;17.60;;;9.35;;
33403;SDS011;19751;40.274;18.268;2022-10-26T08:10:12;17.58;;;9.32;;
33403;SDS011;19751;40.274;18.268;2022-10-26T08:12:39;17.60;;;8.80;;
33403;SDS011;19751;40.274;18.268;2022-10-26T08:15:05;13.90;;;8.63;;
33403;SDS011;19751;40.274;18.268;2022-10-26T08:17:32;16.70;;;9.55;;
33403;SDS011;19751;40.274;18.268;2022-10-26T08:19:57;15.98;;;9.50;;
33403;SDS011;19751;40.274;18.268;2022-10-26T08:22:23;14.23;;;8.60;;
33403;SDS011;19751;40.274;18.268;2022-10-26T08:24:49;15.20;;;8.98;;
33403;SDS011;19751;40.274;18.268;2022-10-26T08:27:14;18.58;;;9.30;;
33403;SDS011;19751;40.274;18.268;2022-10-26T08:29:40;12.43;;;8.85;;
33403;SDS011;19751;40.274;18.268;2022-10-26T08:32:06;15.40;;;8.05;;
33403;SDS011;19751;40.274;18.268;2022-10-26T08:34:32;22.05;;;9.10;;
33403;SDS011;19751;40.274;18.268;2022-10-26T08:36:57;15.55;;;9.07;;
33403;SDS011;19751;40.274;18.268;2022-10-26T08:39:23;18.52;;;9.55;;
33403;SDS011;19751;40.274;18.268;2022-10-26T08:41:49;15.95;;;8.52;;
33403;SDS011;19751;40.274;18.268;2022-10-26T08:47:05;27.35;;;8.93;;
33403;SDS011;19751;40.274;18.268;2022-10-26T08:49:57;25.83;;;8.93;;
33403;SDS011;19751;40.274;18.268;2022-10-26T08:53:17;17.65;;;7.80;;
33403;SDS011;19751;40.274;18.268;2022-10-26T08:55:27;19.50;;;8.65;;
33403;SDS011;19751;40.274;18.268;2022-10-26T08:57:57;20.75;;;9.45;;
33403;SDS011;19751;40.274;18.268;2022-10-26T09:00:26;23.10;;;9.95;;
33403;SDS011;19751;40.274;18.268;2022-10-26T09:02:54;14.35;;;8.52;;
33403;SDS011;19751;40.274;18.268;2022-10-26T09:05:45;17.90;;;8.40;;
33403;SDS011;19751;40.274;18.268;2022-10-26T09:08:14;15.13;;;8.30;;
33403;SDS011;19751;40.274;18.268;2022-10-26T09:10:55;10.57;;;7.43;;
33403;SDS011;19751;40.274;18.268;2022-10-26T09:16:34;16.25;;;8.00;;
33403;SDS011;19751;40.274;18.268;2022-10-26T09:25:19;14.02;;;7.07;;
33403;SDS011;19751;40.274;18.268;2022-10-26T09:27:51;19.25;;;8.38;;
33403;SDS011;19751;40.274;18.268;2022-10-26T09:30:20;16.00;;;7.60;;
33403;SDS011;19751;40.274;18.268;2022-10-26T09:32:48;19.58;;;9.32;;
33403;SDS011;19751;40.274;18.268;2022-10-26T09:35:21;13.60;;;7.80;;
33403;SDS011;19751;40.274;18.268;2022-10-26T09:37:57;11.60;;;7.15;;
33403;SDS011;19751;40.274;18.268;2022-10-26T09:40:32;10.15;;;6.82;;
33403;SDS011;19751;40.274;18.268;2022-10-26T09:43:06;13.23;;;6.72;;
33403;SDS011;19751;40.274;18.268;2022-10-26T09:45:38;11.93;;;7.78;;
33403;SDS011;19751;40.274;18.268;2022-10-26T09:50:41;20.80;;;8.18;;
33403;SDS011;19751;40.274;18.268;2022-10-26T09:53:12;16.08;;;7.82;;
33403;SDS011;19751;40.274;18.268;2022-10-26T09:55:41;15.65;;;8.23;;
33403;SDS011;19751;40.274;18.268;2022-10-26T09:58:13;17.58;;;8.20;;
33403;SDS011;19751;40.274;18.268;2022-10-26T10:00:41;11.98;;;6.95;;
33403;SDS011;19751;40.274;18.268;2022-10-26T10:03:24;11.10;;;7.50;;
33403;SDS011;19751;40.274;18.268;2022-10-26T10:05:52;9.93;;;6.70;;
33403;SDS011;19751;40.274;18.268;2022-10-26T10:08:21;17.33;;;8.43;;
33403;SDS011;19751;40.274;18.268;2022-10-26T10:10:53;15.35;;;7.55;;
33403;SDS011;19751;40.274;18.268;2022-10-26T10:13:28;11.15;;;7.20;;
33403;SDS011;19751;40.274;18.268;2022-10-26T10:16:01;16.05;;;8.02;;
33403;SDS011;19751;40.274;18.268;2022-10-26T10:18:27;12.75;;;7.10;;
33403;SDS011;19751;40.274;18.268;2022-10-26T10:20:54;17.23;;;8.52;;
33403;SDS011;19751;40.274;18.268;2022-10-26T10:23:29;12.35;;;8.60;;
33403;SDS011;19751;40.274;18.268;2022-10-26T10:28:27;16.00;;;7.05;;
33403;SDS011;19751;40.274;18.268;2022-10-26T10:30:54;11.68;;;7.15;;
33403;SDS011;19751;40.274;18.268;2022-10-26T10:33:43;10.48;;;7.00;;
33403;SDS011;19751;40.274;18.268;2022-10-26T10:36:13;12.15;;;7.70;;
33403;SDS011;19751;40.274;18.268;2022-10-26T10:38:41;17.33;;;8.18;;
33403;SDS011;19751;40.274;18.268;2022-10-26T10:43:46;10.70;;;7.05;;
33403;SDS011;19751;40.274;18.268;2022-10-26T10:46:19;20.50;;;7.85;;
33403;SDS011;19751;40.274;18.268;2022-10-26T10:48:51;15.52;;;8.23;;
33403;SDS011;19751;40.274;18.268;2022-10-26T10:51:26;13.50;;;7.45;;
33403;SDS011;19751;40.274;18.268;2022-10-26T10:53:54;15.10;;;7.15;;
33403;SDS011;19751;40.274;18.268;2022-10-26T11:08:20;14.07;;;7.95;;
33403;SDS011;19751;40.274;18.268;2022-10-26T11:10:46;16.25;;;6.93;;
33403;SDS011;19751;40.274;18.268;2022-10-26T11:13:21;11.52;;;7.30;;
33403;SDS011;19751;40.274;18.268;2022-10-26T11:15:55;16.48;;;7.15;;
33403;SDS011;19751;40.274;18.268;2022-10-26T11:18:28;13.27;;;6.30;;
33403;SDS011;19751;40.274;18.268;2022-10-26T11:21:21;13.30;;;7.15;;
33403;SDS011;19751;40.274;18.268;2022-10-26T11:26:35;13.13;;;6.93;;
33403;SDS011;19751;40.274;18.268;2022-10-26T11:29:18;13.65;;;6.20;;
33403;SDS011;19751;40.274;18.268;2022-10-26T11:32:14;10.55;;;6.28;;
33403;SDS011;19751;40.274;18.268;2022-10-26T11:40:59;12.23;;;6.88;;
33403;SDS011;19751;40.274;18.268;2022-10-26T11:43:46;13.50;;;7.13;;
33403;SDS011;19751;40.274;18.268;2022-10-26T11:49:04;13.43;;;6.53;;
33403;SDS011;19751;40.274;18.268;2022-10-26T11:51:41;13.95;;;5.78;;
33403;SDS011;19751;40.274;18.268;2022-10-26T11:54:12;15.40;;;6.63;;
33403;SDS011;19751;40.274;18.268;2022-10-26T11:56:50;11.40;;;6.72;;
33403;SDS011;19751;40.274;18.268;2022-10-26T11:59:19;21.33;;;7.07;;
33403;SDS011;19751;40.274;18.268;2022-10-26T12:01:53;17.15;;;7.78;;
33403;SDS011;19751;40.274;18.268;2022-10-26T12:04:23;17.45;;;7.80;;
33403;SDS011;19751;40.274;18.268;2022-10-26T12:06:54;21.38;;;6.85;;
33403;SDS011;19751;40.274;18.268;2022-10-26T12:09:25;13.40;;;6.55;;
33403;SDS011;19751;40.274;18.268;2022-10-26T12:11:58;10.45;;;5.93;;
33403;SDS011;19751;40.274;18.268;2022-10-26T12:14:33;17.90;;;6.55;;
33403;SDS011;19751;40.274;18.268;2022-10-26T12:22:52;9.18;;;6.78;;
33403;SDS011;19751;40.274;18.268;2022-10-26T12:25:19;8.35;;;7.05;;
33403;SDS011;19751;40.274;18.268;2022-10-26T12:32:49;13.68;;;5.82;;
33403;SDS011;19751;40.274;18.268;2022-10-26T12:35:35;15.30;;;6.20;;
33403;SDS011;19751;40.274;18.268;2022-10-26T12:40:46;11.65;;;6.07;;
33403;SDS011;19751;40.274;18.268;2022-10-26T12:45:38;13.38;;;5.95;;
33403;SDS011;19751;40.274;18.268;2022-10-26T12:48:19;12.70;;;5.25;;
33403;SDS011;19751;40.274;18.268;2022-10-26T12:50:46;20.88;;;6.55;;
33403;SDS011;19751;40.274;18.268;2022-10-26T12:53:12;14.48;;;6.22;;
33403;SDS011;19751;40.274;18.268;2022-10-26T13:01:09;7.47;;;5.63;;
33403;SDS011;19751;40.274;18.268;2022-10-26T13:06:45;14.82;;;5.75;;
33403;SDS011;19751;40.274;18.268;2022-10-26T13:09:31;14.85;;;6.18;;
33403;SDS011;19751;40.274;18.268;2022-10-26T13:11:57;22.08;;;7.15;;
33403;SDS011;19751;40.274;18.268;2022-10-26T13:14:28;22.50;;;6.13;;
33403;SDS011;19751;40.274;18.268;2022-10-26T13:16:58;17.20;;;6.55;;
33403;SDS011;19751;40.274;18.268;2022-10-26T13:19:42;13.00;;;5.97;;
33403;SDS011;19751;40.274;18.268;2022-10-26T13:22:14;11.98;;;7.00;;
33403;SDS011;19751;40.274;18.268;2022-10-26T13:24:47;16.67;;;6.85;;
33403;SDS011;19751;40.274;18.268;2022-10-26T13:32:37;17.00;;;8.05;;
33403;SDS011;19751;40.274;18.268;2022-10-26T13:35:08;13.80;;;6.22;;
33403;SDS011;19751;40.274;18.268;2022-10-26T13:37:38;18.38;;;7.47;;
33403;SDS011;19751;40.274;18.268;2022-10-26T13:40:09;19.75;;;6.85;;
33403;SDS011;19751;40.274;18.268;2022-10-26T13:42:41;12.13;;;5.75;;
33403;SDS011;19751;40.274;18.268;2022-10-26T13:45:12;13.88;;;6.18;;
33403;SDS011;19751;40.274;18.268;2022-10-26T13:47:48;11.45;;;6.50;;
33403;SDS011;19751;40.274;18.268;2022-10-26T13:50:15;22.08;;;6.90;;
33403;SDS011;19751;40.274;18.268;2022-10-26T13:52:44;15.15;;;5.72;;
33403;SDS011;19751;40.274;18.268;2022-10-26T13:55:22;15.32;;;5.18;;
33403;SDS011;19751;40.274;18.268;2022-10-26T14:03:34;15.05;;;6.03;;
33403;SDS011;19751;40.274;18.268;2022-10-26T14:06:04;16.00;;;6.88;;
33403;SDS011;19751;40.274;18.268;2022-10-26T14:08:35;14.93;;;5.82;;
33403;SDS011;19751;40.274;18.268;2022-10-26T14:11:01;9.68;;;5.20;;
33403;SDS011;19751;40.274;18.268;2022-10-26T14:13:27;14.90;;;5.25;;
33403;SDS011;19751;40.274;18.268;2022-10-26T14:15:53;24.15;;;6.63;;
33403;SDS011;19751;40.274;18.268;2022-10-26T14:18:25;11.93;;;5.40;;
33403;SDS011;19751;40.274;18.268;2022-10-26T14:20:58;15.10;;;5.55;;
33403;SDS011;19751;40.274;18.268;2022-10-26T14:23:46;15.52;;;5.90;;
33403;SDS011;19751;40.274;18.268;2022-10-26T14:26:22;18.10;;;6.53;;
33403;SDS011;19751;40.274;18.268;2022-10-26T14:28:54;17.80;;;6.82;;
33403;SDS011;19751;40.274;18.268;2022-10-26T14:31:29;18.58;;;5.78;;
33403;SDS011;19751;40.274;18.268;2022-10-26T14:36:27;24.52;;;8.73;;
33403;SDS011;19751;40.274;18.268;2022-10-26T14:39:02;17.63;;;6.63;;
33403;SDS011;19751;40.274;18.268;2022-10-26T14:41:33;14.30;;;6.32;;
33403;SDS011;19751;40.274;18.268;2022-10-26T14:44:00;12.00;;;5.43;;
33403;SDS011;19751;40.274;18.268;2022-10-26T14:46:26;7.95;;;4.55;;
33403;SDS011;19751;40.274;18.268;2022-10-26T14:48:58;12.35;;;5.38;;
33403;SDS011;19751;40.274;18.268;2022-10-26T14:51:28;15.85;;;5.78;;
33403;SDS011;19751;40.274;18.268;2022-10-26T14:53:58;11.15;;;5.30;;
33403;SDS011;19751;40.274;18.268;2022-10-26T14:59:08;9.93;;;5.72;;
33403;SDS011;19751;40.274;18.268;2022-10-26T15:01:50;10.68;;;5.60;;
33403;SDS011;19751;40.274;18.268;2022-10-26T15:04:26;15.07;;;6.20;;
33403;SDS011;19751;40.274;18.268;2022-10-26T15:09:37;17.30;;;6.13;;
33403;SDS011;19751;40.274;18.268;2022-10-26T15:12:05;9.65;;;5.88;;
33403;SDS011;19751;40.274;18.268;2022-10-26T15:14:31;13.63;;;6.50;;
33403;SDS011;19751;40.274;18.268;2022-10-26T15:16:58;15.85;;;7.03;;
33403;SDS011;19751;40.274;18.268;2022-10-26T15:19:24;13.95;;;6.13;;
33403;SDS011;19751;40.274;18.268;2022-10-26T15:21:51;14.30;;;6.40;;
33403;SDS011;19751;40.274;18.268;2022-10-26T15:26:49;10.23;;;5.80;;
33403;SDS011;19751;40.274;18.268;2022-10-26T15:31:59;18.77;;;8.75;;
33403;SDS011;19751;40.274;18.268;2022-10-26T15:34:25;12.70;;;6.30;;
33403;SDS011;19751;40.274;18.268;2022-10-26T15:36:51;12.40;;;6.25;;
33403;SDS011;19751;40.274;18.268;2022-10-26T15:39:16;16.10;;;6.78;;
33403;SDS011;19751;40.274;18.268;2022-10-26T15:41:45;16.38;;;7.57;;
33403;SDS011;19751;40.274;18.268;2022-10-26T15:44:13;9.13;;;6.30;;
33403;SDS011;19751;40.274;18.268;2022-10-26T15:46:42;9.70;;;5.47;;
33403;SDS011;19751;40.274;18.268;2022-10-26T15:49:13;12.02;;;6.60;;
33403;SDS011;19751;40.274;18.268;2022-10-26T15:51:46;15.40;;;6.38;;
33403;SDS011;19751;40.274;18.268;2022-10-26T15:54:13;14.32;;;7.03;;
33403;SDS011;19751;40.274;18.268;2022-10-26T15:56:39;17.40;;;7.00;;
33403;SDS011;19751;40.274;18.268;2022-10-26T15:59:14;13.13;;;7.30;;
33403;SDS011;19751;40.274;18.268;2022-10-26T16:04:08;14.35;;;7.45;;
33403;SDS011;19751;40.274;18.268;2022-10-26T16:06:34;12.80;;;7.20;;
33403;SDS011;19751;40.274;18.268;2022-10-26T16:09:01;10.98;;;6.93;;
33403;SDS011;19751;40.274;18.268;2022-10-26T16:11:34;12.48;;;6.90;;
33403;SDS011;19751;40.274;18.268;2022-10-26T16:13:59;13.05;;;6.72;;
33403;SDS011;19751;40.274;18.268;2022-10-26T16:16:25;9.63;;;6.53;;
33403;SDS011;19751;40.274;18.268;2022-10-26T16:18:51;12.48;;;6.20;;
33403;SDS011;19751;40.274;18.268;2022-10-26T16:21:18;11.70;;;6.78;;
33403;SDS011;19751;40.274;18.268;2022-10-26T16:23:45;12.77;;;6.13;;
33403;SDS011;19751;40.274;18.268;2022-10-26T16:26:12;15.18;;;7.32;;
33403;SDS011;19751;40.274;18.268;2022-10-26T16:28:37;12.43;;;7.15;;
33403;SDS011;19751;40.274;18.268;2022-10-26T16:31:04;10.27;;;6.50;;
33403;SDS011;19751;40.274;18.268;2022-10-26T16:33:35;15.80;;;7.97;;
33403;SDS011;19751;40.274;18.268;2022-10-26T16:36:01;11.23;;;7.05;;
33403;SDS011;19751;40.274;18.268;2022-10-26T16:38:29;12.50;;;7.10;;
33403;SDS011;19751;40.274;18.268;2022-10-26T16:43:29;11.05;;;6.60;;
33403;SDS011;19751;40.274;18.268;2022-10-26T16:45:56;7.95;;;6.57;;
33403;SDS011;19751;40.274;18.268;2022-10-26T16:48:22;12.38;;;7.43;;
33403;SDS011;19751;40.274;18.268;2022-10-26T16:50:47;11.45;;;6.13;;
33403;SDS011;19751;40.274;18.268;2022-10-26T16:53:13;13.25;;;6.10;;
33403;SDS011;19751;40.274;18.268;2022-10-26T16:55:38;16.33;;;7.35;;